Aviation Digital Data Service (ADDS)

Output produced by TAFs form (1322 UTC 27 August 2016)
found at http://aviationweather.gov/adds/tafs/
 
KDRO 271120Z 2712/2812 05003KT P6SM BKN100 
     FM271800 25005KT P6SM SCT070 BKN150 
     FM272300 32008KT P6SM VCSH BKN070 OVC150 
     FM280200 36005KT P6SM VCSH SCT070 BKN150